createdAt,value
2022-09-07T00:02:47.860Z,98372.22
2022-09-07T00:07:39.738Z,98370.91
2022-09-07T00:12:31.457Z,98363.03
2022-09-07T00:17:23.323Z,98363.59
2022-09-07T00:22:15.039Z,98370.50
2022-09-07T00:27:06.674Z,98371.91
2022-09-07T00:31:58.303Z,98374.94
2022-09-07T00:36:49.951Z,98378.53
2022-09-07T00:41:41.632Z,98366.81
2022-09-07T00:46:33.376Z,98364.34
2022-09-07T00:51:39.755Z,98353.50
2022-09-07T00:56:36.966Z,98345.63
2022-09-07T01:01:29.477Z,98347.84
2022-09-07T01:06:32.192Z,98351.16
2022-09-07T01:11:24.105Z,98347.34
2022-09-07T01:16:37.038Z,98336.44
2022-09-07T01:21:59.201Z,98343.28
2022-09-07T01:27:11.651Z,98335.38
2022-09-07T01:32:11.590Z,98324.19
2022-09-07T01:37:44.934Z,98320.41
2022-09-07T01:42:47.930Z,98318.78
2022-09-07T01:47:45.318Z,98313.34
2022-09-07T01:52:58.296Z,98318.53
2022-09-07T01:58:13.541Z,98317.72
2022-09-07T02:03:15.198Z,98311.72
2022-09-07T02:08:32.355Z,98327.00
2022-09-07T02:13:31.658Z,98312.31
2022-09-07T02:18:26.881Z,98308.50
2022-09-07T02:23:23.220Z,98312.03
2022-09-07T02:28:21.158Z,98321.84
2022-09-07T02:33:12.685Z,98309.03
2022-09-07T02:38:06.453Z,98306.34
2022-09-07T02:43:05.606Z,98317.78
2022-09-07T02:48:15.292Z,98325.97
2022-09-07T02:53:22.374Z,98322.69
2022-09-07T02:58:35.081Z,98321.34
2022-09-07T03:03:35.247Z,98329.78
2022-09-07T03:08:30.986Z,98326.50
2022-09-07T03:13:28.533Z,98325.44
2022-09-07T03:18:20.715Z,98320.53
2022-09-07T03:23:12.804Z,98331.69
2022-09-07T03:28:04.969Z,98319.72
2022-09-07T03:32:56.766Z,98326.53
2022-09-07T03:37:48.492Z,98323.53
2022-09-07T03:42:40.772Z,98315.34
2022-09-07T03:47:34.903Z,98318.34
2022-09-07T03:52:26.618Z,98318.34
2022-09-07T03:57:20.315Z,98326.50
2022-09-07T04:02:12.177Z,98325.16
2022-09-07T04:07:04.092Z,98321.59
2022-09-07T04:11:55.771Z,98316.44
2022-09-07T04:16:48.760Z,98324.59
2022-09-07T04:21:40.884Z,98315.63
2022-09-07T04:26:35.625Z,98323.78
2022-09-07T04:31:27.555Z,98320.25
2022-09-07T04:36:20.522Z,98318.34
2022-09-07T04:41:17.312Z,98320.25
2022-09-07T04:46:30.067Z,98304.41
2022-09-07T04:51:23.464Z,98292.16
2022-09-07T04:56:17.054Z,98294.06
2022-09-07T05:01:09.155Z,98296.53
2022-09-07T05:06:02.230Z,98285.34
2022-09-07T05:10:55.297Z,98285.63
2022-09-07T05:15:47.073Z,98283.72
2022-09-07T05:20:38.723Z,98303.03
2022-09-07T05:25:31.517Z,98292.97
2022-09-07T05:35:35.021Z,98286.41
2022-09-07T05:40:26.706Z,98293.22
2022-09-07T05:45:18.474Z,98305.47
2022-09-07T05:50:10.745Z,98306.28
2022-09-07T05:55:19.622Z,98309.03
2022-09-07T06:00:14.737Z,98315.84
2022-09-07T06:05:07.835Z,98306.31
2022-09-07T06:15:11.653Z,98312.53
2022-09-07T06:20:05.353Z,98319.91
2022-09-07T06:24:56.981Z,98318.78
2022-09-07T06:29:48.654Z,98318.78
2022-09-07T06:34:40.317Z,98320.41
2022-09-07T06:39:32.070Z,98319.56
2022-09-07T06:44:23.791Z,98318.47
2022-09-07T06:49:15.464Z,98315.75
2022-09-07T06:59:18.872Z,98311.59
2022-09-07T07:04:10.586Z,98317.56
2022-09-07T07:09:03.348Z,98321.88
2022-09-07T07:13:55.342Z,98322.34
2022-09-07T07:18:52.170Z,98328.00
2022-09-07T07:23:43.950Z,98322.44
2022-09-07T07:33:48.359Z,98322.56
2022-09-07T07:43:57.097Z,98330.81
2022-09-07T07:48:49.113Z,98340.97
2022-09-07T07:53:42.452Z,98345.28
2022-09-07T07:58:36.424Z,98344.13
2022-09-07T08:03:28.774Z,98336.81
2022-09-07T08:08:21.046Z,98326.75
2022-09-07T08:13:12.764Z,98326.72
2022-09-07T08:18:04.404Z,98329.34
2022-09-07T08:22:55.998Z,98329.41
2022-09-07T08:27:47.594Z,98323.50
2022-09-07T08:32:40.652Z,98337.91
2022-09-07T08:37:32.603Z,98341.56
2022-09-07T08:42:42.916Z,98331.69
2022-09-07T08:47:41.319Z,98329.84
2022-09-07T08:52:59.018Z,98330.34
2022-09-07T08:58:17.698Z,98335.50
2022-09-07T09:03:29.093Z,98351.34
2022-09-07T09:08:36.779Z,98356.72
2022-09-07T09:13:47.308Z,98345.19
2022-09-07T09:19:00.679Z,98343.06
2022-09-07T09:23:55.193Z,98352.22
2022-09-07T09:28:46.928Z,98360.50
2022-09-07T09:33:38.660Z,98350.94
2022-09-07T09:38:34.691Z,98356.63
2022-09-07T09:43:32.467Z,98339.84
2022-09-07T09:48:37.430Z,98344.41
2022-09-07T09:53:34.013Z,98336.59
2022-09-07T10:04:01.100Z,98333.16
2022-09-07T10:08:59.495Z,98334.66
2022-09-07T10:14:00.879Z,98336.00
2022-09-07T10:18:58.759Z,98327.88
2022-09-07T10:23:58.324Z,98324.00
2022-09-07T10:29:26.293Z,98343.13
2022-09-07T10:34:50.648Z,98321.75
2022-09-07T10:40:00.932Z,98320.84
2022-09-07T10:45:01.176Z,98320.69
2022-09-07T10:55:40.233Z,98303.50
2022-09-07T11:00:57.996Z,98306.16
2022-09-07T11:06:09.765Z,98305.88
2022-09-07T11:11:12.317Z,98290.81
2022-09-07T11:16:50.574Z,98301.53
2022-09-07T11:26:49.435Z,98292.91
2022-09-07T11:31:45.405Z,98274.91
2022-09-07T11:36:46.293Z,98288.59
2022-09-07T11:41:56.407Z,98280.69
2022-09-07T11:46:51.529Z,98269.94
2022-09-07T11:52:05.783Z,98269.13
2022-09-07T11:57:14.891Z,98270.91
2022-09-07T12:02:58.353Z,98260.00
2022-09-07T12:07:59.584Z,98252.78
2022-09-07T12:13:14.286Z,98262.44
2022-09-07T12:18:36.882Z,98260.84
2022-09-07T12:23:30.999Z,98263.91
2022-09-07T12:28:25.472Z,98257.19
2022-09-07T12:33:26.443Z,98248.25
2022-09-07T12:38:18.122Z,98246.69
2022-09-07T12:43:12.934Z,98254.19
2022-09-07T12:48:16.610Z,98242.50
2022-09-07T12:53:11.057Z,98233.19
2022-09-07T12:58:28.265Z,98240.53
2022-09-07T13:03:52.796Z,98248.47
2022-09-07T13:08:53.473Z,98247.53
2022-09-07T13:14:08.511Z,98238.25
2022-09-07T13:19:02.867Z,98242.38
2022-09-07T13:29:47.288Z,98260.47
2022-09-07T13:35:00.953Z,98236.63
2022-09-07T13:39:57.228Z,98236.00
2022-09-07T13:44:55.524Z,98234.22
2022-09-07T13:50:11.757Z,98229.81
2022-09-07T13:55:32.404Z,98217.16
2022-09-07T14:00:24.743Z,98213.91
2022-09-07T14:05:20.383Z,98205.94
2022-09-07T14:10:19.600Z,98201.78
2022-09-07T14:15:17.364Z,98198.50
2022-09-07T14:20:14.378Z,98189.41
2022-09-07T14:25:07.758Z,98184.22
2022-09-07T14:30:35.051Z,98194.56
2022-09-07T14:35:33.942Z,98201.66
2022-09-07T14:40:26.735Z,98183.94
2022-09-07T14:45:23.972Z,98188.19
2022-09-07T14:50:18.345Z,98188.38
2022-09-07T14:55:35.997Z,98176.25
2022-09-07T15:00:32.120Z,98185.19
2022-09-07T15:05:29.776Z,98179.03
2022-09-07T15:10:21.354Z,98174.63
2022-09-07T15:15:21.456Z,98188.78
2022-09-07T15:20:39.718Z,98224.31
2022-09-07T15:25:32.395Z,98245.78
2022-09-07T15:30:25.380Z,98250.16
2022-09-07T15:35:16.965Z,98232.59
2022-09-07T15:40:21.933Z,98220.50
2022-09-07T15:45:14.504Z,98229.97
2022-09-07T15:50:07.732Z,98229.28
2022-09-07T15:54:59.739Z,98228.16
2022-09-07T15:59:51.298Z,98225.91
2022-09-07T16:04:43.215Z,98222.03
2022-09-07T16:09:37.757Z,98231.00
2022-09-07T16:14:29.662Z,98225.22
2022-09-07T16:19:21.476Z,98231.00
2022-09-07T16:24:13.079Z,98225.19
2022-09-07T16:29:04.818Z,98228.75
2022-09-07T16:33:56.837Z,98235.47
2022-09-07T16:38:48.741Z,98235.88
2022-09-07T16:43:40.428Z,98236.69
2022-09-07T16:48:34.182Z,98233.56
2022-09-07T16:53:25.946Z,98226.75
2022-09-07T17:03:29.985Z,98211.06
2022-09-07T17:08:21.860Z,98210.09
2022-09-07T17:13:13.481Z,98213.03
2022-09-07T17:18:05.245Z,98215.88
2022-09-07T17:22:56.842Z,98219.53
2022-09-07T17:27:48.796Z,98219.59
2022-09-07T17:32:40.729Z,98212.28
2022-09-07T17:37:32.565Z,98189.69
2022-09-07T17:43:38.796Z,98204.09
2022-09-07T17:47:39.574Z,98191.47
2022-09-07T17:52:31.240Z,98204.19
2022-09-07T17:57:22.977Z,98202.41
2022-09-07T18:02:14.582Z,98203.91
2022-09-07T18:07:06.141Z,98203.06
2022-09-07T18:11:57.718Z,98205.44
2022-09-07T18:16:50.395Z,98202.63
2022-09-07T18:21:43.630Z,98206.81
2022-09-07T18:26:40.042Z,98201.50
2022-09-07T18:31:31.819Z,98212.00
2022-09-07T18:36:25.199Z,98216.50
2022-09-07T18:41:16.963Z,98208.06
2022-09-07T18:46:17.961Z,98207.34
2022-09-07T18:51:10.693Z,98222.47
2022-09-07T18:56:09.973Z,98214.91
2022-09-07T19:01:14.576Z,98207.28
2022-09-07T19:06:09.914Z,98217.19
2022-09-07T19:11:06.713Z,98204.41
2022-09-07T19:16:13.643Z,98215.38
2022-09-07T19:21:07.628Z,98201.25
2022-09-07T19:26:01.445Z,98216.38
2022-09-07T19:30:53.733Z,98214.81
2022-09-07T19:35:45.383Z,98224.69
2022-09-07T19:40:37.212Z,98226.38
2022-09-07T19:45:29.126Z,98220.97
2022-09-07T19:50:22.194Z,98210.31
2022-09-07T19:55:14.431Z,98216.91
2022-09-07T20:00:06.797Z,98209.34
2022-09-07T20:04:58.824Z,98216.53
2022-09-07T20:09:51.781Z,98206.53
2022-09-07T20:14:43.517Z,98218.03
2022-09-07T20:19:35.188Z,98209.06
2022-09-07T20:24:26.913Z,98207.75
2022-09-07T20:29:33.831Z,98207.25
2022-09-07T20:34:26.908Z,98209.22
2022-09-07T20:39:19.365Z,98220.72
2022-09-07T20:44:11.047Z,98221.28
2022-09-07T20:49:03.214Z,98212.03
2022-09-07T20:53:55.923Z,98209.59
2022-09-07T20:58:49.022Z,98214.25
2022-09-07T21:03:48.553Z,98223.00
2022-09-07T21:08:42.781Z,98202.03
2022-09-07T21:13:35.377Z,98209.69
2022-09-07T21:18:26.939Z,98211.91
2022-09-07T21:23:18.902Z,98218.44
2022-09-07T21:28:10.510Z,98214.91
2022-09-07T21:33:03.247Z,98210.25
2022-09-07T21:37:55.278Z,98205.59
2022-09-07T21:42:46.864Z,98191.94
2022-09-07T21:47:38.493Z,98199.34
2022-09-07T21:52:30.037Z,98203.44
2022-09-07T21:57:21.615Z,98193.91
2022-09-07T22:02:13.201Z,98179.44
2022-09-07T22:07:05.019Z,98205.88
2022-09-07T22:11:56.619Z,98208.63
2022-09-07T22:16:48.202Z,98200.44
2022-09-07T22:21:42.071Z,98184.03
2022-09-07T22:26:39.498Z,98179.41
2022-09-07T22:31:33.796Z,98175.56
2022-09-07T22:36:28.394Z,98172.84
2022-09-07T22:41:22.643Z,98175.84
2022-09-07T22:46:14.931Z,98167.94
2022-09-07T22:51:07.971Z,98154.88
2022-09-07T22:56:00.639Z,98149.97
2022-09-07T23:00:52.851Z,98158.72
2022-09-07T23:05:44.437Z,98167.22
2022-09-07T23:10:36.871Z,98165.88
2022-09-07T23:15:28.657Z,98178.69
2022-09-07T23:20:20.233Z,98174.06
2022-09-07T23:25:11.883Z,98160.44
2022-09-07T23:30:04.691Z,98150.03
2022-09-07T23:34:56.308Z,98151.38
2022-09-07T23:39:47.925Z,98150.53
2022-09-07T23:44:39.526Z,98149.97
2022-09-07T23:49:31.101Z,98149.41
2022-09-07T23:54:22.706Z,98132.72
2022-09-07T23:59:14.378Z,98130.28
